sensor_id;sensor_type;location;lat;lon;timestamp;pressure;altitude;pressure_sealevel;temperature;humidity
79028;BME280;68427;48.476;19.102;2023-06-10T00:02:00;97182.06;;;13.53;94.30
79028;BME280;68427;48.476;19.102;2023-06-10T00:04:26;97182.78;;;13.60;94.30
79028;BME280;68427;48.476;19.102;2023-06-10T00:06:52;97184.50;;;13.67;94.17
79028;BME280;68427;48.476;19.102;2023-06-10T00:09:19;97192.00;;;13.70;94.58
79028;BME280;68427;48.476;19.102;2023-06-10T00:11:46;97192.34;;;13.73;93.99
79028;BME280;68427;48.476;19.102;2023-06-10T00:14:12;97197.97;;;13.77;94.17
79028;BME280;68427;48.476;19.102;2023-06-10T00:16:38;97199.13;;;13.81;93.74
79028;BME280;68427;48.476;19.102;2023-06-10T00:19:05;97194.22;;;13.85;93.78
79028;BME280;68427;48.476;19.102;2023-06-10T00:21:31;97187.72;;;13.87;94.01
79028;BME280;68427;48.476;19.102;2023-06-10T00:24:07;97195.97;;;13.91;94.21
79028;BME280;68427;48.476;19.102;2023-06-10T00:26:37;97192.06;;;13.93;93.11
79028;BME280;68427;48.476;19.102;2023-06-10T00:29:03;97190.03;;;13.95;93.93
79028;BME280;68427;48.476;19.102;2023-06-10T00:31:28;97188.19;;;13.96;93.84
79028;BME280;68427;48.476;19.102;2023-06-10T00:33:55;97186.13;;;13.98;93.78
79028;BME280;68427;48.476;19.102;2023-06-10T00:36:22;97194.84;;;13.98;93.41
79028;BME280;68427;48.476;19.102;2023-06-10T00:38:48;97192.22;;;13.98;93.11
79028;BME280;68427;48.476;19.102;2023-06-10T00:41:14;97184.88;;;14.00;93.30
79028;BME280;68427;48.476;19.102;2023-06-10T00:43:39;97183.06;;;14.01;93.60
79028;BME280;68427;48.476;19.102;2023-06-10T00:46:05;97185.09;;;13.99;93.17
79028;BME280;68427;48.476;19.102;2023-06-10T00:48:32;97183.28;;;13.99;93.31
79028;BME280;68427;48.476;19.102;2023-06-10T00:50:59;97181.59;;;14.05;92.91
79028;BME280;68427;48.476;19.102;2023-06-10T00:53:27;97185.03;;;14.05;93.59
79028;BME280;68427;48.476;19.102;2023-06-10T00:55:53;97177.69;;;14.08;93.88
79028;BME280;68427;48.476;19.102;2023-06-10T00:58:19;97177.47;;;14.09;93.55
79028;BME280;68427;48.476;19.102;2023-06-10T01:00:45;97177.25;;;14.11;93.84
79028;BME280;68427;48.476;19.102;2023-06-10T01:03:12;97173.81;;;14.10;93.25
79028;BME280;68427;48.476;19.102;2023-06-10T01:05:38;97174.41;;;14.12;93.55
79028;BME280;68427;48.476;19.102;2023-06-10T01:08:15;97167.88;;;14.15;93.53
79028;BME280;68427;48.476;19.102;2023-06-10T01:10:49;97171.31;;;14.15;93.92
79028;BME280;68427;48.476;19.102;2023-06-10T01:13:17;97168.44;;;14.17;93.41
79028;BME280;68427;48.476;19.102;2023-06-10T01:15:43;97162.94;;;14.18;93.22
79028;BME280;68427;48.476;19.102;2023-06-10T01:18:10;97166.38;;;14.19;92.86
79028;BME280;68427;48.476;19.102;2023-06-10T01:20:41;97171.19;;;14.22;92.76
79028;BME280;68427;48.476;19.102;2023-06-10T01:23:10;97171.19;;;14.22;93.01
79028;BME280;68427;48.476;19.102;2023-06-10T01:25:37;97169.38;;;14.22;93.30
79028;BME280;68427;48.476;19.102;2023-06-10T01:28:07;97177.50;;;14.21;93.33
79028;BME280;68427;48.476;19.102;2023-06-10T01:30:42;97181.72;;;14.22;93.56
79028;BME280;68427;48.476;19.102;2023-06-10T01:33:12;97190.47;;;14.22;93.52
79028;BME280;68427;48.476;19.102;2023-06-10T01:35:41;97173.59;;;14.23;93.76
79028;BME280;68427;48.476;19.102;2023-06-10T01:38:10;97181.88;;;14.27;93.27
79028;BME280;68427;48.476;19.102;2023-06-10T01:40:38;97179.81;;;14.29;93.32
79028;BME280;68427;48.476;19.102;2023-06-10T01:43:04;97184.06;;;14.30;94.13
79028;BME280;68427;48.476;19.102;2023-06-10T01:45:30;97182.44;;;14.29;94.00
79028;BME280;68427;48.476;19.102;2023-06-10T01:47:56;97187.94;;;14.27;93.79
79028;BME280;68427;48.476;19.102;2023-06-10T01:50:21;97180.50;;;14.24;93.63
79028;BME280;68427;48.476;19.102;2023-06-10T01:52:47;97186.66;;;14.18;93.78
79028;BME280;68427;48.476;19.102;2023-06-10T01:55:14;97186.88;;;14.17;93.15
79028;BME280;68427;48.476;19.102;2023-06-10T01:57:40;97188.38;;;14.13;93.70
79028;BME280;68427;48.476;19.102;2023-06-10T02:00:07;97193.63;;;14.13;93.18
79028;BME280;68427;48.476;19.102;2023-06-10T02:02:33;97180.09;;;14.09;93.31
79028;BME280;68427;48.476;19.102;2023-06-10T02:04:59;97187.19;;;14.09;93.91
79028;BME280;68427;48.476;19.102;2023-06-10T02:07:25;97183.97;;;14.07;93.28
79028;BME280;68427;48.476;19.102;2023-06-10T02:09:51;97183.75;;;14.08;93.26
79028;BME280;68427;48.476;19.102;2023-06-10T02:12:18;97187.19;;;14.09;93.98
79028;BME280;68427;48.476;19.102;2023-06-10T02:14:44;97186.41;;;14.08;93.93
79028;BME280;68427;48.476;19.102;2023-06-10T02:17:09;97185.81;;;14.06;92.94
79028;BME280;68427;48.476;19.102;2023-06-10T02:19:38;97179.97;;;14.04;93.20
79028;BME280;68427;48.476;19.102;2023-06-10T02:22:07;97182.03;;;14.02;94.10
79028;BME280;68427;48.476;19.102;2023-06-10T02:24:33;97187.06;;;14.03;94.34
79028;BME280;68427;48.476;19.102;2023-06-10T02:26:59;97187.06;;;14.03;93.63
79028;BME280;68427;48.476;19.102;2023-06-10T02:29:27;97187.06;;;14.03;94.13
79028;BME280;68427;48.476;19.102;2023-06-10T02:31:52;97188.91;;;14.03;93.86
79028;BME280;68427;48.476;19.102;2023-06-10T02:34:18;97196.81;;;14.03;94.09
79028;BME280;68427;48.476;19.102;2023-06-10T02:36:44;97189.69;;;14.03;93.53
79028;BME280;68427;48.476;19.102;2023-06-10T02:39:10;97189.13;;;14.01;93.23
79028;BME280;68427;48.476;19.102;2023-06-10T02:41:35;97187.53;;;14.00;93.56
79028;BME280;68427;48.476;19.102;2023-06-10T02:44:01;97196.22;;;14.01;93.57
79028;BME280;68427;48.476;19.102;2023-06-10T02:46:28;97199.22;;;14.04;93.82
79028;BME280;68427;48.476;19.102;2023-06-10T02:48:54;97195.91;;;14.09;93.03
79028;BME280;68427;48.476;19.102;2023-06-10T02:51:19;97192.47;;;14.09;92.87
79028;BME280;68427;48.476;19.102;2023-06-10T02:53:46;97184.81;;;14.07;93.08
79028;BME280;68427;48.476;19.102;2023-06-10T02:56:12;97194.88;;;14.10;92.61
79028;BME280;68427;48.476;19.102;2023-06-10T02:58:38;97190.06;;;14.07;92.38
79028;BME280;68427;48.476;19.102;2023-06-10T03:01:03;97189.84;;;14.09;92.65
79028;BME280;68427;48.476;19.102;2023-06-10T03:03:30;97189.84;;;14.09;93.10
79028;BME280;68427;48.476;19.102;2023-06-10T03:05:59;97188.81;;;14.10;92.54
79028;BME280;68427;48.476;19.102;2023-06-10T03:08:24;97189.16;;;14.13;92.77
79028;BME280;68427;48.476;19.102;2023-06-10T03:10:50;97195.22;;;14.14;92.25
79028;BME280;68427;48.476;19.102;2023-06-10T03:13:16;97192.59;;;14.14;92.76
79028;BME280;68427;48.476;19.102;2023-06-10T03:15:42;97188.13;;;14.14;92.29
79028;BME280;68427;48.476;19.102;2023-06-10T03:18:07;97195.00;;;14.15;92.25
79028;BME280;68427;48.476;19.102;2023-06-10T03:20:35;97188.72;;;14.16;92.55
79028;BME280;68427;48.476;19.102;2023-06-10T03:23:05;97187.91;;;14.16;91.75
79028;BME280;68427;48.476;19.102;2023-06-10T03:25:33;97186.88;;;14.17;92.06
79028;BME280;68427;48.476;19.102;2023-06-10T03:27:59;97180.94;;;14.21;91.89
79028;BME280;68427;48.476;19.102;2023-06-10T03:30:25;97180.94;;;14.21;91.47
79028;BME280;68427;48.476;19.102;2023-06-10T03:32:51;97189.88;;;14.20;91.55
79028;BME280;68427;48.476;19.102;2023-06-10T03:35:16;97185.78;;;14.24;91.50
79028;BME280;68427;48.476;19.102;2023-06-10T03:37:44;97186.69;;;14.30;91.70
79028;BME280;68427;48.476;19.102;2023-06-10T03:40:10;97190.91;;;14.31;91.66
79028;BME280;68427;48.476;19.102;2023-06-10T03:42:36;97190.78;;;14.26;91.22
79028;BME280;68427;48.476;19.102;2023-06-10T03:45:02;97188.28;;;14.31;90.96
79028;BME280;68427;48.476;19.102;2023-06-10T03:47:33;97190.34;;;14.29;91.54
79028;BME280;68427;48.476;19.102;2023-06-10T03:49:59;97180.84;;;14.28;91.26
79028;BME280;68427;48.476;19.102;2023-06-10T03:52:24;97189.31;;;14.30;91.35
79028;BME280;68427;48.476;19.102;2023-06-10T03:54:51;97196.06;;;14.26;91.15
79028;BME280;68427;48.476;19.102;2023-06-10T03:57:17;97198.50;;;14.27;91.18
79028;BME280;68427;48.476;19.102;2023-06-10T03:59:42;97196.31;;;14.24;91.83
79028;BME280;68427;48.476;19.102;2023-06-10T04:02:08;97200.53;;;14.25;92.25
79028;BME280;68427;48.476;19.102;2023-06-10T04:04:34;97202.13;;;14.26;91.58
79028;BME280;68427;48.476;19.102;2023-06-10T04:07:00;97203.22;;;14.37;91.41
79028;BME280;68427;48.476;19.102;2023-06-10T04:09:25;97195.75;;;14.46;91.36
79028;BME280;68427;48.476;19.102;2023-06-10T04:11:53;97191.22;;;14.53;91.34
79028;BME280;68427;48.476;19.102;2023-06-10T04:14:18;97197.78;;;14.62;90.88
79028;BME280;68427;48.476;19.102;2023-06-10T04:16:44;97192.16;;;14.71;90.60
79028;BME280;68427;48.476;19.102;2023-06-10T04:19:09;97200.41;;;14.74;90.60
79028;BME280;68427;48.476;19.102;2023-06-10T04:21:35;97194.13;;;14.75;90.39
79028;BME280;68427;48.476;19.102;2023-06-10T04:24:02;97198.13;;;14.78;90.59
79028;BME280;68427;48.476;19.102;2023-06-10T04:26:28;97200.78;;;14.78;90.14
79028;BME280;68427;48.476;19.102;2023-06-10T04:28:55;97199.59;;;14.74;90.60
79028;BME280;68427;48.476;19.102;2023-06-10T04:31:20;97203.88;;;14.75;90.03
79028;BME280;68427;48.476;19.102;2023-06-10T04:33:46;97206.25;;;14.76;90.24
79028;BME280;68427;48.476;19.102;2023-06-10T04:36:12;97199.50;;;14.68;90.35
79028;BME280;68427;48.476;19.102;2023-06-10T04:38:37;97202.22;;;14.62;89.84
79028;BME280;68427;48.476;19.102;2023-06-10T04:41:03;97198.91;;;14.66;90.73
79028;BME280;68427;48.476;19.102;2023-06-10T04:43:29;97190.78;;;14.68;91.07
79028;BME280;68427;48.476;19.102;2023-06-10T04:45:57;97196.75;;;14.75;90.59
79028;BME280;68427;48.476;19.102;2023-06-10T04:48:23;97194.22;;;14.80;90.12
79028;BME280;68427;48.476;19.102;2023-06-10T04:50:50;97194.22;;;14.80;90.02
79028;BME280;68427;48.476;19.102;2023-06-10T04:53:16;97196.41;;;14.83;90.09
79028;BME280;68427;48.476;19.102;2023-06-10T04:55:42;97194.00;;;14.94;89.84
79028;BME280;68427;48.476;19.102;2023-06-10T04:58:07;97196.06;;;15.03;90.18
79028;BME280;68427;48.476;19.102;2023-06-10T05:00:33;97201.34;;;15.03;89.68
79028;BME280;68427;48.476;19.102;2023-06-10T05:03:00;97189.28;;;15.07;89.76
79028;BME280;68427;48.476;19.102;2023-06-10T05:05:26;97191.09;;;15.19;89.66
79028;BME280;68427;48.476;19.102;2023-06-10T05:07:51;97185.47;;;15.27;89.97
79028;BME280;68427;48.476;19.102;2023-06-10T05:10:17;97185.22;;;15.40;88.99
79028;BME280;68427;48.476;19.102;2023-06-10T05:12:43;97186.34;;;15.44;88.48
79028;BME280;68427;48.476;19.102;2023-06-10T05:15:10;97186.91;;;15.58;87.76
79028;BME280;68427;48.476;19.102;2023-06-10T05:17:36;97187.41;;;15.84;87.62
79028;BME280;68427;48.476;19.102;2023-06-10T05:20:03;97182.50;;;16.04;86.55
79028;BME280;68427;48.476;19.102;2023-06-10T05:22:28;97178.19;;;16.15;84.99
79028;BME280;68427;48.476;19.102;2023-06-10T05:24:54;97182.78;;;16.36;84.46
79028;BME280;68427;48.476;19.102;2023-06-10T05:27:20;97186.00;;;16.55;83.85
79028;BME280;68427;48.476;19.102;2023-06-10T05:29:47;97186.66;;;16.79;82.01
79028;BME280;68427;48.476;19.102;2023-06-10T05:32:13;97192.97;;;16.95;81.88
79028;BME280;68427;48.476;19.102;2023-06-10T05:34:39;97190.78;;;17.09;81.29
79028;BME280;68427;48.476;19.102;2023-06-10T05:37:06;97189.06;;;17.20;81.24
79028;BME280;68427;48.476;19.102;2023-06-10T05:39:31;97192.66;;;17.31;80.55
79028;BME280;68427;48.476;19.102;2023-06-10T05:41:57;97196.06;;;17.48;78.78
79028;BME280;68427;48.476;19.102;2023-06-10T05:44:24;97190.44;;;17.66;79.22
79028;BME280;68427;48.476;19.102;2023-06-10T05:46:51;97192.94;;;18.00;78.32
79028;BME280;68427;48.476;19.102;2023-06-10T05:49:16;97186.97;;;18.42;76.24
79028;BME280;68427;48.476;19.102;2023-06-10T05:51:42;97190.47;;;18.80;75.00
79028;BME280;68427;48.476;19.102;2023-06-10T05:54:09;97194.13;;;19.11;74.31
79028;BME280;68427;48.476;19.102;2023-06-10T05:56:35;97196.50;;;19.13;73.65
79028;BME280;68427;48.476;19.102;2023-06-10T05:59:00;97185.75;;;19.40;72.22
79028;BME280;68427;48.476;19.102;2023-06-10T06:01:26;97191.84;;;20.03;70.21
79028;BME280;68427;48.476;19.102;2023-06-10T06:03:52;97190.56;;;20.42;68.11
79028;BME280;68427;48.476;19.102;2023-06-10T06:06:18;97184.47;;;20.67;67.37
79028;BME280;68427;48.476;19.102;2023-06-10T06:08:46;97178.00;;;21.14;66.60
79028;BME280;68427;48.476;19.102;2023-06-10T06:11:13;97178.84;;;20.94;66.24
